Time;durP1;ratioP1;P1;durP2;ratioP2;P2;SDS_P1;SDS_P2;PMS_P1;PMS_P2;Temp;Humidity;BMP_temperature;BMP_pressure;BME280_temperature;BME280_humidity;BME280_pressure;Samples;Min_cycle;Max_cycle;Signal;HPM_P1;HPM_P2
2024/03/11 00:02:23;;;;;;;18.80;16.38;;;9.80;96.10;;;;;;5054585;28;20139;-77
2024/03/11 00:04:50;;;;;;;20.50;17.42;;;9.80;96.10;;;;;;5056088;28;20024;-77
2024/03/11 00:07:15;;;;;;;19.55;17.45;;;9.70;96.10;;;;;;5057283;28;20475;-77
2024/03/11 00:09:45;;;;;;;19.50;16.92;;;9.80;96.10;;;;;;5057002;28;20021;-79
2024/03/11 00:12:11;;;;;;;19.73;17.63;;;9.80;96.10;;;;;;5056716;28;20040;-78
2024/03/11 00:14:40;;;;;;;20.08;17.95;;;9.80;96.20;;;;;;5044984;28;20041;-77
2024/03/11 00:17:08;;;;;;;20.88;18.48;;;9.80;96.20;;;;;;5052969;28;20037;-77
2024/03/11 00:19:35;;;;;;;20.83;18.48;;;9.80;96.20;;;;;;5054565;28;20036;-79
2024/03/11 00:22:00;;;;;;;21.17;18.88;;;9.80;96.20;;;;;;5053096;28;20056;-78
2024/03/11 00:24:26;;;;;;;21.45;18.48;;;9.80;96.30;;;;;;5050373;28;20017;-77
2024/03/11 00:26:53;;;;;;;19.63;17.40;;;9.80;96.20;;;;;;5060089;28;20036;-77
2024/03/11 00:29:19;;;;;;;21.10;18.83;;;9.80;96.30;;;;;;5049901;28;20021;-78
2024/03/11 00:31:45;;;;;;;18.63;16.55;;;9.80;96.20;;;;;;5053310;28;20064;-77
2024/03/11 00:34:14;;;;;;;17.42;15.38;;;9.80;96.20;;;;;;5054526;28;20542;-77
2024/03/11 00:36:40;;;;;;;17.83;15.63;;;9.80;96.20;;;;;;5050754;28;20061;-76
2024/03/11 00:39:05;;;;;;;16.52;14.82;;;9.70;96.10;;;;;;5051542;28;20059;-77
2024/03/11 00:41:32;;;;;;;15.95;13.90;;;9.70;96.10;;;;;;5053252;28;20510;-77
2024/03/11 00:43:58;;;;;;;14.77;12.45;;;9.60;96.10;;;;;;5056113;28;20036;-78
2024/03/11 00:46:23;;;;;;;13.82;12.30;;;9.70;96.10;;;;;;5048033;28;20144;-76
2024/03/11 00:48:49;;;;;;;14.07;11.48;;;9.60;96.10;;;;;;5056090;28;20465;-76
2024/03/11 00:51:16;;;;;;;14.82;12.48;;;9.70;96.10;;;;;;5056643;28;20143;-77
2024/03/11 00:53:42;;;;;;;14.40;12.10;;;9.60;96.10;;;;;;5061184;28;20017;-76
2024/03/11 00:56:08;;;;;;;15.73;12.73;;;9.60;96.10;;;;;;5051751;28;20033;-76
2024/03/11 00:58:37;;;;;;;17.48;14.38;;;9.60;96.10;;;;;;5052118;28;20559;-76
2024/03/11 01:01:05;;;;;;;19.10;15.02;;;9.60;96.10;;;;;;5056030;28;20040;-76
2024/03/11 01:03:31;;;;;;;22.75;17.48;;;9.60;95.90;;;;;;5055302;28;20099;-78
2024/03/11 01:06:00;;;;;;;24.27;17.70;;;9.60;96.00;;;;;;5054064;28;20040;-78
2024/03/11 01:08:29;;;;;;;26.25;18.50;;;9.60;96.00;;;;;;5057473;28;20012;-77
2024/03/11 01:10:55;;;;;;;25.20;18.35;;;9.50;95.90;;;;;;5060530;28;20370;-78
2024/03/11 01:13:21;;;;;;;27.58;17.90;;;9.50;96.00;;;;;;5060193;28;20503;-77
2024/03/11 01:15:48;;;;;;;27.27;18.08;;;9.50;95.90;;;;;;5050313;28;20038;-77
2024/03/11 01:18:14;;;;;;;27.38;17.52;;;9.50;95.90;;;;;;5056552;28;20031;-76
2024/03/11 01:20:40;;;;;;;26.20;16.88;;;9.40;96.00;;;;;;5056210;28;20076;-78
2024/03/11 01:23:07;;;;;;;28.88;17.50;;;9.40;96.00;;;;;;5059496;28;20400;-79
2024/03/11 01:25:33;;;;;;;27.50;17.48;;;9.40;96.00;;;;;;5057481;28;20109;-79
2024/03/11 01:27:59;;;;;;;24.85;17.27;;;9.40;96.00;;;;;;5049129;28;20036;-76
2024/03/11 01:30:25;;;;;;;30.95;19.92;;;9.40;95.90;;;;;;5058122;28;20047;-77
2024/03/11 01:32:51;;;;;;;30.05;20.20;;;9.40;95.90;;;;;;5059319;28;20408;-79
2024/03/11 01:35:17;;;;;;;32.47;20.98;;;9.40;95.80;;;;;;5059605;28;20135;-77
2024/03/11 01:37:43;;;;;;;32.42;21.45;;;9.40;96.00;;;;;;5055927;28;20035;-77
2024/03/11 01:40:11;;;;;;;36.17;22.67;;;9.40;96.00;;;;;;5056915;28;20064;-77
2024/03/11 01:42:42;;;;;;;33.25;21.98;;;9.40;95.90;;;;;;5053039;28;20220;-77
2024/03/11 01:45:09;;;;;;;31.00;19.77;;;9.30;95.70;;;;;;5052406;28;20110;-76
2024/03/11 01:47:37;;;;;;;32.55;21.60;;;9.30;95.90;;;;;;5051999;28;20216;-79
2024/03/11 01:50:07;;;;;;;26.65;19.80;;;9.30;95.90;;;;;;5054393;28;20063;-78
2024/03/11 01:52:37;;;;;;;25.50;18.77;;;9.30;96.00;;;;;;5057726;28;20013;-77
2024/03/11 01:55:03;;;;;;;26.52;19.15;;;9.30;96.00;;;;;;5048414;28;20086;-77
2024/03/11 01:57:33;;;;;;;27.80;19.08;;;9.30;95.90;;;;;;5055591;28;20025;-77
2024/03/11 01:59:59;;;;;;;27.00;19.60;;;9.30;96.00;;;;;;5048084;28;20048;-77
2024/03/11 02:02:25;;;;;;;25.63;18.40;;;9.30;96.10;;;;;;5051589;28;20033;-77
2024/03/11 02:04:51;;;;;;;24.35;17.88;;;9.30;96.10;;;;;;5055211;28;20323;-77
2024/03/11 02:07:17;;;;;;;20.95;16.05;;;9.30;96.00;;;;;;5052494;28;20500;-77
2024/03/11 02:09:44;;;;;;;19.02;14.90;;;9.30;96.00;;;;;;5056608;28;20028;-79
2024/03/11 02:12:14;;;;;;;16.80;13.35;;;9.20;96.00;;;;;;5055609;28;20044;-77
2024/03/11 02:14:40;;;;;;;16.58;12.82;;;9.30;96.00;;;;;;5054584;28;20103;-77
2024/03/11 02:17:06;;;;;;;15.82;12.40;;;9.30;96.10;;;;;;5055814;28;20040;-78
2024/03/11 02:19:33;;;;;;;15.38;11.73;;;9.30;96.10;;;;;;5054176;28;20025;-78
2024/03/11 02:22:02;;;;;;;15.25;11.88;;;9.20;96.10;;;;;;5060057;28;20048;-78
2024/03/11 02:24:28;;;;;;;13.52;10.85;;;9.20;96.10;;;;;;5055273;28;20205;-77
2024/03/11 02:26:54;;;;;;;14.57;10.90;;;9.20;96.10;;;;;;5049139;28;20181;-77
2024/03/11 02:29:20;;;;;;;15.63;11.73;;;9.20;96.10;;;;;;5047197;28;20054;-79
2024/03/11 02:31:50;;;;;;;16.95;12.77;;;9.20;96.10;;;;;;5052787;28;20152;-78
2024/03/11 02:34:16;;;;;;;19.67;14.57;;;9.20;96.10;;;;;;5056215;28;20031;-77
2024/03/11 02:36:50;;;;;;;20.25;14.55;;;9.20;96.00;;;;;;5054405;28;20020;-78
2024/03/11 02:39:19;;;;;;;19.42;14.25;;;9.30;96.00;;;;;;5058326;28;20111;-78
2024/03/11 02:41:45;;;;;;;24.88;15.35;;;9.20;96.10;;;;;;5055083;28;20032;-78
2024/03/11 02:44:14;;;;;;;22.88;16.15;;;9.30;96.10;;;;;;5053861;28;20094;-78
2024/03/11 02:46:43;;;;;;;25.08;15.95;;;9.30;96.00;;;;;;5047226;28;20501;-78
2024/03/11 02:49:10;;;;;;;21.98;15.77;;;9.30;96.00;;;;;;5053706;28;20436;-78
2024/03/11 02:51:38;;;;;;;25.48;17.33;;;9.20;96.10;;;;;;5051749;28;20166;-77
2024/03/11 02:54:05;;;;;;;26.70;18.73;;;9.30;96.10;;;;;;5050316;28;20028;-77
2024/03/11 02:56:31;;;;;;;27.90;19.17;;;9.30;96.20;;;;;;5056099;28;20437;-77
2024/03/11 02:58:57;;;;;;;31.05;21.48;;;9.20;96.10;;;;;;5056956;28;20137;-78
2024/03/11 03:01:23;;;;;;;30.95;22.27;;;9.20;96.10;;;;;;5051611;28;20196;-77
2024/03/11 03:03:48;;;;;;;31.52;22.17;;;9.20;96.20;;;;;;5050218;28;20155;-77
2024/03/11 03:06:17;;;;;;;34.55;24.52;;;9.30;96.30;;;;;;5051724;28;20040;-77
2024/03/11 03:08:45;;;;;;;32.88;23.77;;;9.30;96.30;;;;;;5054824;28;20461;-77
2024/03/11 03:11:12;;;;;;;33.75;25.80;;;9.30;96.20;;;;;;5049284;28;20045;-78
2024/03/11 03:13:39;;;;;;;37.40;27.48;;;9.30;96.20;;;;;;5055467;28;20067;-77
2024/03/11 03:16:06;;;;;;;36.47;27.40;;;9.20;96.30;;;;;;5052406;28;20079;-77
2024/03/11 03:18:34;;;;;;;38.03;27.02;;;9.30;96.30;;;;;;5053345;28;20028;-76
2024/03/11 03:21:00;;;;;;;37.83;28.48;;;9.30;96.30;;;;;;5056370;28;20469;-77
2024/03/11 03:23:26;;;;;;;38.42;27.95;;;9.30;96.30;;;;;;5054359;28;20028;-77
2024/03/11 03:25:52;;;;;;;37.83;27.95;;;9.30;96.30;;;;;;5052568;28;20039;-76
2024/03/11 03:28:18;;;;;;;39.00;28.25;;;9.30;96.30;;;;;;5051785;28;20078;-77
2024/03/11 03:30:46;;;;;;;37.70;28.10;;;9.40;96.30;;;;;;5055518;28;20036;-79
2024/03/11 03:33:12;;;;;;;38.70;29.10;;;9.30;96.20;;;;;;5056648;28;20103;-78
2024/03/11 03:35:38;;;;;;;38.67;28.25;;;9.30;96.20;;;;;;5053192;28;20134;-78
2024/03/11 03:38:04;;;;;;;40.70;31.27;;;9.30;96.20;;;;;;5053899;28;20120;-78
2024/03/11 03:40:30;;;;;;;40.47;30.48;;;9.30;96.20;;;;;;5058298;28;20031;-78
2024/03/11 03:42:57;;;;;;;43.45;31.65;;;9.20;96.20;;;;;;5051665;28;20051;-78
2024/03/11 03:45:23;;;;;;;41.30;29.80;;;9.20;96.20;;;;;;5053491;28;20058;-79
2024/03/11 03:47:49;;;;;;;42.10;31.55;;;9.20;96.20;;;;;;5047009;28;20341;-78
2024/03/11 03:50:14;;;;;;;41.17;30.58;;;9.30;96.20;;;;;;5049951;28;20048;-78
2024/03/11 03:52:46;;;;;;;41.97;30.33;;;9.20;96.20;;;;;;5057749;28;20047;-78
2024/03/11 03:55:12;;;;;;;45.08;31.85;;;9.20;96.20;;;;;;5053597;28;20059;-79
2024/03/11 03:57:38;;;;;;;46.35;33.20;;;9.10;96.30;;;;;;5050256;28;20606;-77
2024/03/11 04:00:14;;;;;;;47.83;33.83;;;9.10;96.40;;;;;;5055583;28;20032;-78
2024/03/11 04:02:41;;;;;;;52.10;35.53;;;9.20;96.40;;;;;;5052542;28;20149;-77
2024/03/11 04:05:07;;;;;;;50.85;34.80;;;9.10;96.40;;;;;;5052549;28;20032;-77
2024/03/11 04:07:32;;;;;;;51.95;34.42;;;9.10;96.50;;;;;;5057991;28;20020;-78
2024/03/11 04:09:58;;;;;;;49.97;35.05;;;9.10;96.50;;;;;;5053566;28;20431;-77
2024/03/11 04:12:23;;;;;;;52.75;35.83;;;9.10;96.50;;;;;;5056064;28;20608;-78
2024/03/11 04:14:49;;;;;;;51.13;35.10;;;9.10;96.50;;;;;;5051809;28;20079;-77
2024/03/11 04:17:15;;;;;;;50.78;34.67;;;9.10;96.70;;;;;;5047448;28;20241;-79
2024/03/11 04:19:41;;;;;;;51.03;35.63;;;9.10;96.70;;;;;;5054703;28;20031;-78
2024/03/11 04:22:06;;;;;;;50.28;34.13;;;9.10;96.70;;;;;;5053802;28;20066;-77
2024/03/11 04:24:32;;;;;;;49.60;33.30;;;9.10;96.70;;;;;;5053363;28;20021;-78
2024/03/11 04:26:59;;;;;;;45.60;32.15;;;9.10;96.70;;;;;;5059524;28;20412;-78
2024/03/11 04:29:27;;;;;;;50.72;32.90;;;9.10;96.80;;;;;;5060149;28;20055;-78
2024/03/11 04:31:53;;;;;;;46.85;32.35;;;9.10;96.80;;;;;;5062920;28;20040;-78
2024/03/11 04:34:21;;;;;;;47.05;31.38;;;9.10;96.80;;;;;;5056783;28;20039;-79
2024/03/11 04:36:47;;;;;;;47.30;30.98;;;9.10;96.70;;;;;;5053538;28;20025;-79
2024/03/11 04:39:14;;;;;;;45.85;31.05;;;9.10;96.80;;;;;;5057458;28;20025;-78
2024/03/11 04:41:42;;;;;;;47.10;32.38;;;9.10;96.80;;;;;;5063990;28;20033;-79
2024/03/11 04:44:08;;;;;;;42.47;29.25;;;9.10;96.80;;;;;;5060145;28;20068;-78
2024/03/11 04:46:36;;;;;;;44.53;30.52;;;9.10;96.80;;;;;;5053023;28;20543;-79
2024/03/11 04:49:02;;;;;;;43.67;29.45;;;9.10;96.80;;;;;;5062775;28;20078;-78
2024/03/11 04:51:28;;;;;;;42.33;29.13;;;9.10;96.80;;;;;;5058218;28;20435;-77
2024/03/11 04:53:54;;;;;;;43.72;28.63;;;9.10;96.80;;;;;;5058708;28;20028;-78
2024/03/11 04:56:19;;;;;;;42.00;27.63;;;9.00;96.70;;;;;;5058947;28;20058;-78
2024/03/11 04:58:45;;;;;;;40.80;27.80;;;9.10;96.80;;;;;;5053747;28;20428;-79
2024/03/11 05:01:11;;;;;;;44.13;27.50;;;9.10;96.90;;;;;;5067948;28;20376;-79
2024/03/11 05:03:36;;;;;;;40.50;27.30;;;9.10;96.80;;;;;;5061819;28;21856;-78
2024/03/11 05:06:02;;;;;;;42.95;27.42;;;9.10;96.80;;;;;;5056152;28;20040;-78
2024/03/11 05:08:28;;;;;;;38.40;26.30;;;9.10;96.80;;;;;;5056605;28;20116;-78
2024/03/11 05:10:53;;;;;;;36.40;24.85;;;9.00;96.80;;;;;;5057629;28;20123;-79
2024/03/11 05:13:20;;;;;;;37.00;25.27;;;9.00;96.80;;;;;;5054679;28;20024;-78
2024/03/11 05:15:49;;;;;;;39.72;26.38;;;9.00;96.80;;;;;;5048991;28;20456;-78
2024/03/11 05:18:15;;;;;;;37.58;25.85;;;9.00;96.80;;;;;;5061413;28;20024;-78
2024/03/11 05:20:42;;;;;;;38.47;26.73;;;9.00;96.80;;;;;;5056660;28;20044;-78
2024/03/11 05:23:08;;;;;;;41.13;28.65;;;9.00;96.90;;;;;;5053779;28;20330;-78
2024/03/11 05:25:34;;;;;;;40.25;27.08;;;9.00;96.90;;;;;;5055543;28;20089;-78
2024/03/11 05:28:00;;;;;;;42.97;28.63;;;9.00;96.90;;;;;;5054483;28;20192;-79
2024/03/11 05:30:27;;;;;;;43.90;30.33;;;9.00;96.90;;;;;;5058631;28;20044;-78
2024/03/11 05:32:53;;;;;;;45.72;30.90;;;9.00;96.90;;;;;;5056515;28;20028;-78
2024/03/11 05:35:19;;;;;;;45.85;30.50;;;9.00;96.90;;;;;;5053381;28;20222;-78
2024/03/11 05:37:45;;;;;;;50.70;32.22;;;9.00;97.00;;;;;;5054778;28;20025;-78
2024/03/11 05:40:11;;;;;;;47.58;31.55;;;9.10;96.90;;;;;;5056835;28;20330;-78
2024/03/11 05:42:40;;;;;;;50.13;32.22;;;9.00;96.90;;;;;;5053922;28;20044;-79
2024/03/11 05:45:07;;;;;;;50.38;31.48;;;9.00;97.00;;;;;;5052141;28;20122;-78
2024/03/11 05:47:33;;;;;;;53.88;33.72;;;9.00;96.90;;;;;;5053621;28;20064;-78
2024/03/11 05:50:00;;;;;;;49.00;32.33;;;9.00;96.90;;;;;;5049406;28;20446;-78
2024/03/11 05:52:25;;;;;;;52.20;34.03;;;9.00;97.00;;;;;;5051861;28;20087;-78
2024/03/11 05:54:53;;;;;;;47.80;31.35;;;9.10;97.00;;;;;;5053447;28;20024;-79
2024/03/11 05:57:25;;;;;;;49.97;32.03;;;9.00;97.00;;;;;;5053269;28;20545;-78
2024/03/11 05:59:53;;;;;;;48.25;32.05;;;9.00;97.10;;;;;;5050915;28;20020;-78
2024/03/11 06:02:23;;;;;;;54.03;33.90;;;9.00;97.10;;;;;;5048814;28;20029;-78
2024/03/11 06:04:48;;;;;;;50.65;32.15;;;9.00;97.10;;;;;;5047511;28;20024;-79
2024/03/11 06:07:23;;;;;;;50.33;31.92;;;9.00;97.10;;;;;;5056526;28;20478;-78
2024/03/11 06:09:52;;;;;;;53.60;34.55;;;9.00;97.10;;;;;;5068482;28;20805;-78
2024/03/11 06:12:19;;;;;;;52.67;32.53;;;9.00;97.20;;;;;;5055930;28;20047;-78
2024/03/11 06:14:45;;;;;;;50.15;33.25;;;9.00;97.10;;;;;;5051189;28;20099;-78
2024/03/11 06:17:11;;;;;;;53.20;34.65;;;9.00;97.20;;;;;;5055667;28;20024;-78
2024/03/11 06:19:39;;;;;;;50.65;31.92;;;9.00;97.20;;;;;;5054261;28;20048;-78
2024/03/11 06:22:05;;;;;;;54.20;33.90;;;9.00;97.20;;;;;;5053413;28;20362;-78
2024/03/11 06:24:32;;;;;;;51.35;32.97;;;9.00;97.20;;;;;;5054921;28;20071;-78
2024/03/11 06:26:58;;;;;;;50.83;33.22;;;9.00;97.20;;;;;;5059575;28;20025;-78
2024/03/11 06:29:26;;;;;;;53.72;33.67;;;9.10;97.30;;;;;;5055611;28;20039;-77
2024/03/11 06:31:53;;;;;;;53.97;34.08;;;9.00;97.20;;;;;;5053059;28;20625;-78
2024/03/11 06:34:21;;;;;;;51.78;33.47;;;9.10;97.20;;;;;;5054664;28;20024;-78
2024/03/11 06:36:48;;;;;;;54.70;33.45;;;9.10;97.20;;;;;;5048236;28;20811;-78
2024/03/11 06:39:15;;;;;;;53.13;34.20;;;9.00;97.20;;;;;;5053275;28;20032;-78
2024/03/11 06:41:41;;;;;;;53.90;33.05;;;9.00;97.20;;;;;;5054091;28;20032;-79
2024/03/11 06:44:07;;;;;;;52.42;33.75;;;9.00;97.20;;;;;;5054434;28;20052;-78
2024/03/11 06:46:33;;;;;;;54.40;33.85;;;9.00;97.20;;;;;;5047537;28;20797;-80
2024/03/11 06:48:59;;;;;;;55.50;35.00;;;9.10;97.30;;;;;;5054966;28;20032;-75
2024/03/11 06:51:25;;;;;;;54.42;34.63;;;9.00;97.30;;;;;;5055412;28;20470;-78
2024/03/11 06:53:51;;;;;;;57.95;35.95;;;9.10;97.30;;;;;;5052855;28;20074;-78
2024/03/11 06:56:18;;;;;;;53.20;34.30;;;9.10;97.30;;;;;;5049747;28;20037;-77
2024/03/11 06:58:44;;;;;;;56.03;36.05;;;9.10;97.30;;;;;;5064753;28;20017;-77
2024/03/11 07:01:11;;;;;;;54.28;35.60;;;9.10;97.30;;;;;;5053016;28;20056;-77
2024/03/11 07:03:38;;;;;;;55.92;35.78;;;9.10;97.30;;;;;;5056692;28;20017;-77
2024/03/11 07:06:04;;;;;;;50.92;33.55;;;9.10;97.30;;;;;;5056442;28;20033;-77
2024/03/11 07:08:34;;;;;;;54.22;35.58;;;9.10;97.30;;;;;;5055054;28;20354;-77
2024/03/11 07:11:01;;;;;;;50.55;34.13;;;9.10;97.20;;;;;;5051811;28;20048;-77
2024/03/11 07:13:35;;;;;;;59.05;35.55;;;9.10;97.20;;;;;;5055956;28;20417;-78
2024/03/11 07:16:04;;;;;;;52.67;33.67;;;9.10;97.20;;;;;;5055668;28;20032;-77
2024/03/11 07:18:31;;;;;;;55.33;34.85;;;9.10;97.20;;;;;;5055790;28;20059;-78
2024/03/11 07:21:03;;;;;;;56.60;35.35;;;9.20;97.30;;;;;;5054336;28;20515;-78
2024/03/11 07:23:28;;;;;;;53.38;33.17;;;9.10;97.20;;;;;;5054770;28;20154;-78
2024/03/11 07:25:58;;;;;;;53.17;33.97;;;9.20;97.20;;;;;;5055566;28;20099;-78
2024/03/11 07:28:28;;;;;;;52.15;33.70;;;9.20;97.20;;;;;;5055915;28;20028;-76
2024/03/11 07:30:55;;;;;;;50.63;32.45;;;9.30;97.20;;;;;;5048289;28;20059;-75
2024/03/11 07:33:22;;;;;;;49.42;32.88;;;9.20;97.10;;;;;;5059107;28;20085;-75
2024/03/11 07:35:50;;;;;;;54.63;33.45;;;9.20;97.10;;;;;;5054387;28;20517;-76
2024/03/11 07:38:16;;;;;;;48.05;31.00;;;9.30;97.10;;;;;;5052348;28;20054;-78
2024/03/11 07:40:43;;;;;;;51.13;31.73;;;9.30;97.10;;;;;;5052449;28;20037;-78
2024/03/11 07:43:10;;;;;;;47.22;31.33;;;9.30;97.00;;;;;;5053777;28;20422;-76
2024/03/11 07:45:37;;;;;;;47.75;31.02;;;9.30;97.10;;;;;;5053634;28;20054;-78
2024/03/11 07:48:05;;;;;;;48.92;31.35;;;9.30;97.00;;;;;;5053874;28;20024;-77
2024/03/11 07:50:31;;;;;;;47.50;29.90;;;9.30;97.00;;;;;;5058012;28;20039;-76
2024/03/11 07:52:58;;;;;;;45.33;30.98;;;9.30;96.90;;;;;;5057390;28;20020;-77
2024/03/11 07:55:24;;;;;;;44.30;29.90;;;9.30;97.00;;;;;;5050380;28;21547;-77
2024/03/11 07:57:53;;;;;;;47.88;31.17;;;9.40;96.90;;;;;;5057362;28;20028;-76
2024/03/11 08:00:21;;;;;;;49.33;31.15;;;9.50;97.00;;;;;;5055950;28;20037;-75
2024/03/11 08:02:50;;;;;;;47.17;30.05;;;9.50;96.80;;;;;;5050989;28;20422;-77
2024/03/11 08:05:17;;;;;;;44.40;28.17;;;9.40;96.60;;;;;;5052120;28;20123;-76
2024/03/11 08:07:47;;;;;;;45.13;28.52;;;9.40;96.70;;;;;;5059076;28;20243;-77
2024/03/11 08:10:14;;;;;;;46.38;31.35;;;9.50;96.70;;;;;;5055382;28;20520;-77
2024/03/11 08:12:44;;;;;;;47.03;31.15;;;9.50;96.60;;;;;;5052801;28;20494;-76
2024/03/11 08:15:14;;;;;;;46.13;29.58;;;9.50;96.60;;;;;;5052321;28;20036;-77
2024/03/11 08:17:43;;;;;;;40.10;27.27;;;9.50;96.70;;;;;;5051405;28;20017;-78
2024/03/11 08:20:16;;;;;;;38.72;26.60;;;9.50;96.70;;;;;;5054887;28;20068;-78
2024/03/11 08:22:47;;;;;;;41.00;26.70;;;9.50;96.70;;;;;;5050383;28;20070;-77
2024/03/11 08:25:22;;;;;;;38.70;25.25;;;9.60;96.70;;;;;;5051529;28;20491;-77
2024/03/11 08:27:51;;;;;;;41.70;26.70;;;9.50;96.60;;;;;;5053105;28;20020;-75
2024/03/11 08:30:18;;;;;;;39.75;26.65;;;9.60;96.80;;;;;;5048965;28;20090;-79
2024/03/11 08:32:46;;;;;;;46.25;29.45;;;9.60;96.70;;;;;;5049637;28;20029;-78
2024/03/11 08:35:14;;;;;;;44.47;29.35;;;9.60;96.70;;;;;;5051230;28;20090;-76
2024/03/11 08:37:41;;;;;;;44.13;29.77;;;9.70;96.70;;;;;;5053398;28;20380;-75
2024/03/11 08:40:08;;;;;;;42.85;29.60;;;9.70;96.60;;;;;;5052975;28;20037;-76
2024/03/11 08:42:35;;;;;;;43.67;28.05;;;9.70;96.60;;;;;;5054139;28;20044;-75
2024/03/11 08:45:01;;;;;;;43.55;28.73;;;9.80;96.50;;;;;;5048974;28;20060;-76
2024/03/11 08:47:28;;;;;;;45.65;29.88;;;9.90;96.50;;;;;;5052658;28;20028;-75
2024/03/11 08:49:54;;;;;;;47.55;30.55;;;9.90;96.40;;;;;;5048485;28;20036;-76
2024/03/11 08:52:20;;;;;;;42.92;28.42;;;9.90;96.40;;;;;;5054064;28;20333;-76
2024/03/11 08:54:45;;;;;;;40.78;26.85;;;10.00;96.30;;;;;;5048044;28;20029;-76
2024/03/11 08:57:15;;;;;;;40.15;28.10;;;10.00;96.30;;;;;;5057233;28;20021;-75
2024/03/11 08:59:41;;;;;;;43.45;29.35;;;9.90;96.10;;;;;;5052930;28;20037;-75
2024/03/11 09:02:13;;;;;;;43.38;29.75;;;9.90;96.30;;;;;;5051122;28;20361;-76
2024/03/11 09:04:38;;;;;;;43.15;28.33;;;9.90;96.20;;;;;;5051365;28;20480;-75
2024/03/11 09:07:04;;;;;;;43.25;28.85;;;10.00;96.30;;;;;;5053901;28;20024;-75
2024/03/11 09:09:30;;;;;;;38.88;27.73;;;10.00;96.30;;;;;;5054867;28;20085;-74
2024/03/11 09:12:00;;;;;;;39.60;26.00;;;10.00;96.20;;;;;;5058521;28;20480;-75
2024/03/11 09:14:32;;;;;;;39.72;26.15;;;10.10;96.20;;;;;;5057290;28;20446;-77
2024/03/11 09:17:00;;;;;;;41.25;27.23;;;10.10;96.20;;;;;;5055547;28;20123;-75
2024/03/11 09:19:27;;;;;;;37.42;26.55;;;10.10;96.10;;;;;;5056119;28;20027;-76
2024/03/11 09:21:53;;;;;;;33.75;23.23;;;10.10;95.90;;;;;;5052056;28;20032;-76
2024/03/11 09:24:20;;;;;;;36.40;24.98;;;10.20;95.90;;;;;;5051526;28;20033;-76
2024/03/11 09:26:49;;;;;;;35.88;23.63;;;10.20;95.90;;;;;;5050744;28;20062;-76
2024/03/11 09:29:16;;;;;;;37.40;25.25;;;10.40;95.90;;;;;;5056446;28;20158;-76
2024/03/11 09:31:42;;;;;;;35.83;25.08;;;10.40;95.60;;;;;;5055700;28;20116;-77
2024/03/11 09:34:08;;;;;;;38.45;26.08;;;10.40;95.70;;;;;;5051464;28;20076;-76
2024/03/11 09:36:38;;;;;;;37.72;26.83;;;10.50;95.60;;;;;;5054326;28;20041;-76
2024/03/11 09:39:06;;;;;;;43.03;30.10;;;10.50;95.40;;;;;;5050883;28;20040;-75
2024/03/11 09:41:43;;;;;;;46.90;31.77;;;10.40;95.00;;;;;;5049165;28;20032;-75
2024/03/11 09:44:20;;;;;;;46.85;32.85;;;10.40;95.10;;;;;;5049120;28;20047;-77
2024/03/11 09:46:54;;;;;;;48.17;34.10;;;10.50;95.00;;;;;;5057094;28;20082;-78
2024/03/11 09:49:23;;;;;;;51.65;34.55;;;10.40;94.80;;;;;;5052075;28;20060;-76
2024/03/11 09:51:49;;;;;;;56.00;36.33;;;10.50;95.00;;;;;;5054911;28;20036;-77
2024/03/11 09:54:17;;;;;;;56.72;37.47;;;10.60;94.90;;;;;;5052881;28;20020;-76
2024/03/11 09:56:47;;;;;;;54.10;37.25;;;10.50;94.70;;;;;;5052944;28;20213;-78
2024/03/11 09:59:25;;;;;;;59.47;40.53;;;10.50;94.90;;;;;;5052050;28;20241;-78
2024/03/11 10:01:52;;;;;;;56.72;37.95;;;10.50;94.80;;;;;;5046218;28;20048;-77
2024/03/11 10:04:21;;;;;;;60.05;39.75;;;10.50;94.70;;;;;;5051616;28;20027;-77
2024/03/11 10:07:04;;;;;;;65.13;42.55;;;10.50;94.60;;;;;;5054575;28;20111;-76
2024/03/11 10:09:31;;;;;;;68.90;45.25;;;10.30;94.50;;;;;;5049235;28;20077;-77
2024/03/11 10:12:07;;;;;;;74.13;46.67;;;10.20;94.70;;;;;;5053713;28;20040;-79
2024/03/11 10:14:38;;;;;;;72.68;47.63;;;10.10;94.90;;;;;;5057297;28;20032;-77
2024/03/11 10:17:24;;;;;;;76.18;48.50;;;10.10;95.10;;;;;;5052490;28;20060;-77
2024/03/11 10:19:56;;;;;;;72.10;47.45;;;10.10;95.20;;;;;;5052759;28;20095;-79
2024/03/11 10:22:29;;;;;;;82.53;50.85;;;10.20;95.30;;;;;;5047646;28;20032;-77
2024/03/11 10:24:57;;;;;;;81.67;51.50;;;10.40;95.20;;;;;;5051287;28;20028;-74
2024/03/11 10:27:31;;;;;;;73.30;47.30;;;10.50;95.20;;;;;;5050087;28;20433;-76
2024/03/11 10:29:57;;;;;;;68.78;46.67;;;10.50;95.10;;;;;;5049925;28;20370;-76
2024/03/11 10:32:36;;;;;;;70.97;47.55;;;10.40;94.70;;;;;;5050260;28;20033;-77
2024/03/11 10:35:02;;;;;;;75.22;47.55;;;10.30;94.90;;;;;;5048846;28;20033;-75
2024/03/11 10:37:29;;;;;;;73.47;48.15;;;10.40;95.10;;;;;;5051226;28;20051;-75
2024/03/11 10:40:00;;;;;;;73.88;47.88;;;10.40;94.90;;;;;;5054765;28;20041;-75
2024/03/11 10:42:32;;;;;;;74.57;49.58;;;10.20;94.80;;;;;;5047892;28;20175;-73
2024/03/11 10:44:59;;;;;;;72.47;49.58;;;10.10;94.90;;;;;;5052171;28;20472;-76
2024/03/11 10:47:28;;;;;;;79.43;52.15;;;10.10;95.10;;;;;;5049036;28;20021;-76
2024/03/11 10:49:54;;;;;;;85.25;53.95;;;10.10;95.20;;;;;;5050399;28;20414;-75
2024/03/11 10:52:21;;;;;;;84.53;53.72;;;10.10;95.30;;;;;;5052608;28;20423;-77
2024/03/11 10:54:50;;;;;;;92.82;55.72;;;10.10;95.40;;;;;;5052683;28;20046;-78
2024/03/11 10:57:33;;;;;;;82.45;53.15;;;10.10;95.40;;;;;;5045587;28;20066;-77
2024/03/11 11:00:09;;;;;;;81.45;51.92;;;10.10;95.30;;;;;;5051291;28;20032;-77
2024/03/11 11:02:38;;;;;;;90.68;56.00;;;10.20;95.30;;;;;;5050396;28;20020;-77
2024/03/11 11:05:06;;;;;;;82.82;53.85;;;10.30;95.40;;;;;;5049573;28;20101;-77
2024/03/11 11:07:33;;;;;;;81.47;54.00;;;10.40;95.20;;;;;;5051425;28;20016;-76
2024/03/11 11:10:03;;;;;;;85.60;56.45;;;10.50;95.20;;;;;;5048421;28;20422;-75
2024/03/11 11:12:29;;;;;;;80.55;54.13;;;10.50;94.90;;;;;;5057690;28;20025;-75
2024/03/11 11:15:08;;;;;;;88.10;55.97;;;10.50;94.70;;;;;;5044395;28;20174;-76
2024/03/11 11:17:38;;;;;;;86.60;56.00;;;10.50;94.70;;;;;;5048050;28;20044;-74
2024/03/11 11:20:42;;;;;;;88.93;55.30;;;10.50;94.50;;;;;;5044887;28;20025;-75
2024/03/11 11:23:02;;;;;;;87.13;56.75;;;10.30;94.20;;;;;;5049893;28;20029;-75
2024/03/11 11:25:42;;;;;;;86.95;55.67;;;10.40;94.50;;;;;;5054271;28;20032;-78
2024/03/11 11:28:16;;;;;;;87.20;55.33;;;10.40;94.50;;;;;;5051359;28;20112;-77
2024/03/11 11:30:45;;;;;;;85.50;55.22;;;10.40;94.60;;;;;;5050146;28;20685;-76
2024/03/11 11:33:11;;;;;;;87.63;54.13;;;10.40;94.70;;;;;;5051295;28;20339;-76
2024/03/11 11:35:44;;;;;;;80.10;52.70;;;10.40;94.60;;;;;;5050872;28;20067;-75
2024/03/11 11:38:25;;;;;;;81.00;52.67;;;10.40;94.50;;;;;;5049516;28;20025;-76
2024/03/11 11:40:53;;;;;;;80.65;53.20;;;10.40;94.60;;;;;;5049578;28;20039;-76
2024/03/11 11:43:46;;;;;;;80.70;53.58;;;10.40;94.70;;;;;;5051383;28;20137;-75
2024/03/11 11:46:41;;;;;;;86.03;52.13;;;10.40;94.70;;;;;;5049597;28;20064;-77
2024/03/11 11:49:23;;;;;;;81.53;51.92;;;10.50;94.70;;;;;;5050733;28;20149;-77
2024/03/11 11:51:54;;;;;;;79.20;51.65;;;10.50;94.90;;;;;;5048106;28;20139;-77
2024/03/11 11:54:25;;;;;;;78.28;51.95;;;10.60;94.80;;;;;;5050047;28;20028;-77
2024/03/11 11:57:06;;;;;;;75.60;49.03;;;10.60;94.70;;;;;;5045308;28;20344;-77
2024/03/11 11:59:38;;;;;;;73.78;49.80;;;10.70;94.50;;;;;;5048626;28;20127;-77
2024/03/11 12:02:26;;;;;;;68.20;45.72;;;10.70;94.60;;;;;;5048378;28;20767;-77
2024/03/11 12:04:57;;;;;;;70.65;48.03;;;10.70;94.50;;;;;;5043903;28;20021;-77
2024/03/11 12:07:24;;;;;;;69.75;47.65;;;10.70;94.50;;;;;;5051098;28;20272;-77
2024/03/11 12:09:51;;;;;;;67.85;46.80;;;10.80;94.40;;;;;;5050798;28;20124;-77
2024/03/11 12:12:34;;;;;;;66.28;45.28;;;10.90;94.40;;;;;;5048377;28;20489;-77
2024/03/11 12:15:04;;;;;;;68.55;45.67;;;11.00;94.30;;;;;;5046367;28;20408;-77
2024/03/11 12:17:31;;;;;;;67.25;46.72;;;11.00;94.20;;;;;;5054252;28;20009;-77
2024/03/11 12:20:18;;;;;;;68.90;48.92;;;11.10;94.10;;;;;;5048723;28;20060;-77
2024/03/11 12:22:44;;;;;;;68.78;46.60;;;11.10;93.90;;;;;;5050181;28;20040;-76
2024/03/11 12:25:13;;;;;;;71.43;48.70;;;11.10;93.90;;;;;;5047857;28;20037;-78
2024/03/11 12:27:43;;;;;;;77.78;53.58;;;11.10;93.80;;;;;;5050701;28;20399;-76
2024/03/11 12:30:18;;;;;;;71.93;52.38;;;11.10;93.70;;;;;;5049406;28;20064;-74
2024/03/11 12:32:54;;;;;;;79.30;55.05;;;11.00;93.70;;;;;;5049840;28;20064;-76
2024/03/11 12:35:21;;;;;;;74.65;51.53;;;10.80;93.80;;;;;;5049048;28;20033;-75
2024/03/11 12:37:48;;;;;;;80.80;54.92;;;10.80;94.20;;;;;;5051637;28;20232;-76
2024/03/11 12:40:20;;;;;;;79.60;53.40;;;10.80;94.30;;;;;;5052522;28;20590;-77